sensor_id;sensor_type;location;lat;lon;timestamp;pressure;altitude;pressure_sealevel;temperature;humidity
32933;BME280;19444;50.518;10.870;2022-07-10T00:00:31;97177.63;;;12.89;100.00
32933;BME280;19444;50.518;10.870;2022-07-10T00:03:28;97173.28;;;12.79;100.00
32933;BME280;19444;50.518;10.870;2022-07-10T00:06:25;97175.13;;;12.70;100.00
32933;BME280;19444;50.518;10.870;2022-07-10T00:09:22;97181.94;;;12.90;100.00
32933;BME280;19444;50.518;10.870;2022-07-10T00:12:19;97182.41;;;12.06;100.00
32933;BME280;19444;50.518;10.870;2022-07-10T00:15:17;97184.03;;;11.93;100.00
32933;BME280;19444;50.518;10.870;2022-07-10T00:18:14;97181.50;;;12.38;100.00
32933;BME280;19444;50.518;10.870;2022-07-10T00:21:11;97175.25;;;12.15;100.00
32933;BME280;19444;50.518;10.870;2022-07-10T00:24:08;97172.47;;;12.20;100.00
32933;BME280;19444;50.518;10.870;2022-07-10T00:27:06;97181.13;;;12.17;100.00
32933;BME280;19444;50.518;10.870;2022-07-10T00:30:04;97173.56;;;12.05;100.00
32933;BME280;19444;50.518;10.870;2022-07-10T00:33:01;97172.28;;;12.03;100.00
32933;BME280;19444;50.518;10.870;2022-07-10T00:35:58;97172.31;;;11.89;100.00
32933;BME280;19444;50.518;10.870;2022-07-10T00:38:55;97175.22;;;11.60;100.00
32933;BME280;19444;50.518;10.870;2022-07-10T00:41:52;97178.03;;;11.08;100.00
32933;BME280;19444;50.518;10.870;2022-07-10T00:44:49;97187.75;;;11.51;100.00
32933;BME280;19444;50.518;10.870;2022-07-10T00:47:46;97181.59;;;11.64;100.00
32933;BME280;19444;50.518;10.870;2022-07-10T00:50:45;97183.91;;;11.71;100.00
32933;BME280;19444;50.518;10.870;2022-07-10T00:53:48;97179.19;;;11.49;100.00
32933;BME280;19444;50.518;10.870;2022-07-10T00:56:45;97179.31;;;11.57;100.00
32933;BME280;19444;50.518;10.870;2022-07-10T00:59:46;97178.22;;;11.45;100.00
32933;BME280;19444;50.518;10.870;2022-07-10T01:02:44;97179.59;;;11.56;100.00
32933;BME280;19444;50.518;10.870;2022-07-10T01:05:41;97183.38;;;11.68;100.00
32933;BME280;19444;50.518;10.870;2022-07-10T01:08:38;97173.19;;;11.24;100.00
32933;BME280;19444;50.518;10.870;2022-07-10T01:11:37;97171.59;;;11.23;100.00
32933;BME280;19444;50.518;10.870;2022-07-10T01:14:34;97162.09;;;11.45;100.00
32933;BME280;19444;50.518;10.870;2022-07-10T01:17:32;97164.00;;;11.44;100.00
32933;BME280;19444;50.518;10.870;2022-07-10T01:20:32;97152.44;;;11.30;100.00
32933;BME280;19444;50.518;10.870;2022-07-10T01:23:29;97137.25;;;11.25;100.00
32933;BME280;19444;50.518;10.870;2022-07-10T01:26:26;97145.25;;;11.11;100.00
32933;BME280;19444;50.518;10.870;2022-07-10T01:29:23;97148.84;;;11.21;100.00
32933;BME280;19444;50.518;10.870;2022-07-10T01:32:20;97147.44;;;11.23;100.00
32933;BME280;19444;50.518;10.870;2022-07-10T01:35:17;97148.53;;;11.22;100.00
32933;BME280;19444;50.518;10.870;2022-07-10T01:38:14;97154.25;;;11.34;100.00
32933;BME280;19444;50.518;10.870;2022-07-10T01:41:11;97164.25;;;11.29;100.00
32933;BME280;19444;50.518;10.870;2022-07-10T01:44:08;97152.94;;;10.67;100.00
32933;BME280;19444;50.518;10.870;2022-07-10T01:47:05;97156.69;;;11.17;100.00
32933;BME280;19444;50.518;10.870;2022-07-10T01:50:03;97150.34;;;11.27;100.00
32933;BME280;19444;50.518;10.870;2022-07-10T01:53:00;97160.78;;;10.63;100.00
32933;BME280;19444;50.518;10.870;2022-07-10T01:55:57;97148.81;;;11.07;100.00
32933;BME280;19444;50.518;10.870;2022-07-10T01:58:54;97150.47;;;11.03;100.00
32933;BME280;19444;50.518;10.870;2022-07-10T02:01:51;97144.88;;;10.86;100.00
32933;BME280;19444;50.518;10.870;2022-07-10T02:04:48;97144.38;;;11.30;100.00
32933;BME280;19444;50.518;10.870;2022-07-10T02:07:45;97131.94;;;11.20;100.00
32933;BME280;19444;50.518;10.870;2022-07-10T02:10:42;97141.34;;;11.04;100.00
32933;BME280;19444;50.518;10.870;2022-07-10T02:13:40;97155.59;;;11.18;100.00
32933;BME280;19444;50.518;10.870;2022-07-10T02:16:37;97152.78;;;10.77;100.00
32933;BME280;19444;50.518;10.870;2022-07-10T02:19:35;97151.25;;;11.50;100.00
32933;BME280;19444;50.518;10.870;2022-07-10T02:22:32;97150.00;;;11.15;100.00
32933;BME280;19444;50.518;10.870;2022-07-10T02:25:29;97150.38;;;11.54;100.00
32933;BME280;19444;50.518;10.870;2022-07-10T02:28:26;97151.38;;;11.72;100.00
32933;BME280;19444;50.518;10.870;2022-07-10T02:31:22;97145.31;;;11.53;100.00
32933;BME280;19444;50.518;10.870;2022-07-10T02:34:19;97135.66;;;11.38;100.00
32933;BME280;19444;50.518;10.870;2022-07-10T02:37:16;97140.72;;;11.39;100.00
32933;BME280;19444;50.518;10.870;2022-07-10T02:40:13;97131.06;;;11.38;100.00
32933;BME280;19444;50.518;10.870;2022-07-10T02:43:10;97140.22;;;11.37;100.00
32933;BME280;19444;50.518;10.870;2022-07-10T02:46:07;97130.88;;;11.35;100.00
32933;BME280;19444;50.518;10.870;2022-07-10T02:49:04;97131.19;;;11.75;100.00
32933;BME280;19444;50.518;10.870;2022-07-10T02:52:01;97128.19;;;11.76;100.00
32933;BME280;19444;50.518;10.870;2022-07-10T02:54:58;97126.72;;;11.56;100.00
32933;BME280;19444;50.518;10.870;2022-07-10T02:57:55;97111.78;;;11.23;100.00
32933;BME280;19444;50.518;10.870;2022-07-10T03:00:52;97115.25;;;11.23;100.00
32933;BME280;19444;50.518;10.870;2022-07-10T03:03:49;97116.41;;;10.90;100.00
32933;BME280;19444;50.518;10.870;2022-07-10T03:06:46;97122.19;;;10.78;100.00
32933;BME280;19444;50.518;10.870;2022-07-10T03:09:43;97109.50;;;10.70;100.00
32933;BME280;19444;50.518;10.870;2022-07-10T03:12:40;97111.53;;;11.05;100.00
32933;BME280;19444;50.518;10.870;2022-07-10T03:15:37;97108.06;;;10.91;100.00
32933;BME280;19444;50.518;10.870;2022-07-10T03:18:34;97101.59;;;11.06;100.00
32933;BME280;19444;50.518;10.870;2022-07-10T03:21:31;97106.91;;;10.78;100.00
32933;BME280;19444;50.518;10.870;2022-07-10T03:24:28;97097.34;;;10.40;100.00
32933;BME280;19444;50.518;10.870;2022-07-10T03:27:25;97093.00;;;10.76;100.00
32933;BME280;19444;50.518;10.870;2022-07-10T03:30:22;97096.16;;;10.65;100.00
32933;BME280;19444;50.518;10.870;2022-07-10T03:33:19;97104.09;;;10.37;100.00
32933;BME280;19444;50.518;10.870;2022-07-10T03:36:15;97107.97;;;10.07;100.00
32933;BME280;19444;50.518;10.870;2022-07-10T03:39:12;97109.28;;;10.47;100.00
32933;BME280;19444;50.518;10.870;2022-07-10T03:42:09;97113.09;;;10.60;100.00
32933;BME280;19444;50.518;10.870;2022-07-10T03:45:06;97107.09;;;10.49;100.00
32933;BME280;19444;50.518;10.870;2022-07-10T03:48:04;97099.66;;;10.46;100.00
32933;BME280;19444;50.518;10.870;2022-07-10T03:51:01;97102.19;;;10.57;100.00
32933;BME280;19444;50.518;10.870;2022-07-10T03:53:58;97110.81;;;10.16;100.00
32933;BME280;19444;50.518;10.870;2022-07-10T03:56:55;97114.75;;;9.81;100.00
32933;BME280;19444;50.518;10.870;2022-07-10T04:00:12;97120.81;;;10.29;100.00
32933;BME280;19444;50.518;10.870;2022-07-10T04:03:09;97117.34;;;10.29;100.00
32933;BME280;19444;50.518;10.870;2022-07-10T04:06:06;97120.03;;;10.29;100.00
32933;BME280;19444;50.518;10.870;2022-07-10T04:09:03;97109.13;;;10.20;100.00
32933;BME280;19444;50.518;10.870;2022-07-10T04:12:01;97117.22;;;10.15;100.00
32933;BME280;19444;50.518;10.870;2022-07-10T04:14:57;97127.56;;;10.27;100.00
32933;BME280;19444;50.518;10.870;2022-07-10T04:17:54;97126.03;;;9.96;100.00
32933;BME280;19444;50.518;10.870;2022-07-10T04:20:52;97129.63;;;9.87;100.00
32933;BME280;19444;50.518;10.870;2022-07-10T04:23:49;97123.28;;;10.25;100.00
32933;BME280;19444;50.518;10.870;2022-07-10T04:26:46;97127.03;;;9.82;100.00
32933;BME280;19444;50.518;10.870;2022-07-10T04:29:43;97131.88;;;10.22;100.00
32933;BME280;19444;50.518;10.870;2022-07-10T04:32:40;97133.53;;;9.76;100.00
32933;BME280;19444;50.518;10.870;2022-07-10T04:35:38;97128.41;;;10.22;100.00
32933;BME280;19444;50.518;10.870;2022-07-10T04:38:35;97130.22;;;10.27;100.00
32933;BME280;19444;50.518;10.870;2022-07-10T04:41:32;97131.94;;;10.17;100.00
32933;BME280;19444;50.518;10.870;2022-07-10T04:44:29;97139.78;;;9.90;100.00
32933;BME280;19444;50.518;10.870;2022-07-10T04:47:26;97129.72;;;9.82;100.00
32933;BME280;19444;50.518;10.870;2022-07-10T04:50:23;97127.38;;;10.18;100.00
32933;BME280;19444;50.518;10.870;2022-07-10T04:53:20;97136.41;;;9.60;100.00
32933;BME280;19444;50.518;10.870;2022-07-10T04:56:17;97128.44;;;9.98;100.00
32933;BME280;19444;50.518;10.870;2022-07-10T04:59:14;97135.09;;;10.01;100.00
32933;BME280;19444;50.518;10.870;2022-07-10T05:02:11;97135.72;;;9.74;100.00
32933;BME280;19444;50.518;10.870;2022-07-10T05:05:08;97140.88;;;9.89;100.00
32933;BME280;19444;50.518;10.870;2022-07-10T05:08:05;97127.66;;;10.16;100.00
32933;BME280;19444;50.518;10.870;2022-07-10T05:11:02;97138.94;;;10.13;100.00
32933;BME280;19444;50.518;10.870;2022-07-10T05:13:59;97136.34;;;10.65;100.00
32933;BME280;19444;50.518;10.870;2022-07-10T05:16:56;97139.38;;;10.20;100.00
32933;BME280;19444;50.518;10.870;2022-07-10T05:19:52;97136.84;;;10.67;100.00
32933;BME280;19444;50.518;10.870;2022-07-10T05:22:52;97127.75;;;11.14;100.00
32933;BME280;19444;50.518;10.870;2022-07-10T05:25:49;97124.00;;;11.29;100.00
32933;BME280;19444;50.518;10.870;2022-07-10T05:28:46;97118.97;;;10.95;100.00
32933;BME280;19444;50.518;10.870;2022-07-10T05:31:42;97124.91;;;11.38;100.00
32933;BME280;19444;50.518;10.870;2022-07-10T05:34:39;97130.69;;;11.45;100.00
32933;BME280;19444;50.518;10.870;2022-07-10T05:37:36;97136.03;;;11.18;100.00
32933;BME280;19444;50.518;10.870;2022-07-10T05:40:33;97134.16;;;11.32;100.00
32933;BME280;19444;50.518;10.870;2022-07-10T05:43:30;97130.88;;;11.49;100.00
32933;BME280;19444;50.518;10.870;2022-07-10T05:46:27;97128.41;;;11.66;100.00
32933;BME280;19444;50.518;10.870;2022-07-10T05:49:24;97127.09;;;11.36;100.00
32933;BME280;19444;50.518;10.870;2022-07-10T05:52:21;97137.34;;;11.48;100.00
32933;BME280;19444;50.518;10.870;2022-07-10T05:55:18;97142.25;;;11.87;100.00
32933;BME280;19444;50.518;10.870;2022-07-10T05:58:18;97153.47;;;12.16;100.00
32933;BME280;19444;50.518;10.870;2022-07-10T06:01:15;97148.00;;;11.94;100.00
32933;BME280;19444;50.518;10.870;2022-07-10T06:04:12;97149.19;;;11.74;100.00
32933;BME280;19444;50.518;10.870;2022-07-10T06:07:09;97150.78;;;11.48;100.00
32933;BME280;19444;50.518;10.870;2022-07-10T06:10:06;97157.44;;;11.64;100.00
32933;BME280;19444;50.518;10.870;2022-07-10T06:13:03;97158.13;;;11.69;100.00
32933;BME280;19444;50.518;10.870;2022-07-10T06:16:00;97153.97;;;11.63;100.00
32933;BME280;19444;50.518;10.870;2022-07-10T06:18:57;97164.25;;;11.43;100.00
32933;BME280;19444;50.518;10.870;2022-07-10T06:21:54;97158.25;;;12.06;100.00
32933;BME280;19444;50.518;10.870;2022-07-10T06:25:10;97167.00;;;12.11;100.00
32933;BME280;19444;50.518;10.870;2022-07-10T06:28:08;97160.13;;;12.19;100.00
32933;BME280;19444;50.518;10.870;2022-07-10T06:31:05;97162.94;;;12.00;100.00
32933;BME280;19444;50.518;10.870;2022-07-10T06:34:02;97160.84;;;11.97;100.00
32933;BME280;19444;50.518;10.870;2022-07-10T06:36:59;97164.94;;;11.81;100.00
32933;BME280;19444;50.518;10.870;2022-07-10T06:39:57;97159.03;;;11.65;100.00
32933;BME280;19444;50.518;10.870;2022-07-10T06:42:54;97178.72;;;11.74;100.00
32933;BME280;19444;50.518;10.870;2022-07-10T06:45:51;97168.09;;;11.96;100.00
32933;BME280;19444;50.518;10.870;2022-07-10T06:48:48;97178.06;;;12.10;100.00
32933;BME280;19444;50.518;10.870;2022-07-10T06:51:44;97167.69;;;12.17;100.00
32933;BME280;19444;50.518;10.870;2022-07-10T06:54:42;97160.34;;;12.09;100.00
32933;BME280;19444;50.518;10.870;2022-07-10T06:57:39;97168.28;;;12.28;100.00
32933;BME280;19444;50.518;10.870;2022-07-10T07:00:36;97172.94;;;12.36;100.00
32933;BME280;19444;50.518;10.870;2022-07-10T07:03:33;97178.81;;;12.38;100.00
32933;BME280;19444;50.518;10.870;2022-07-10T07:06:30;97169.97;;;12.23;100.00
32933;BME280;19444;50.518;10.870;2022-07-10T07:09:27;97163.91;;;12.04;100.00
32933;BME280;19444;50.518;10.870;2022-07-10T07:12:24;97156.66;;;12.05;100.00
32933;BME280;19444;50.518;10.870;2022-07-10T07:15:21;97159.44;;;12.13;100.00
32933;BME280;19444;50.518;10.870;2022-07-10T07:18:20;97164.72;;;12.18;100.00
32933;BME280;19444;50.518;10.870;2022-07-10T07:21:19;97162.72;;;12.10;100.00
32933;BME280;19444;50.518;10.870;2022-07-10T07:24:34;97154.78;;;12.41;100.00
32933;BME280;19444;50.518;10.870;2022-07-10T07:27:33;97153.13;;;12.32;100.00
32933;BME280;19444;50.518;10.870;2022-07-10T07:30:31;97147.81;;;12.54;100.00
32933;BME280;19444;50.518;10.870;2022-07-10T07:33:28;97153.44;;;12.66;100.00
32933;BME280;19444;50.518;10.870;2022-07-10T07:36:24;97157.69;;;12.67;100.00
32933;BME280;19444;50.518;10.870;2022-07-10T07:39:22;97148.13;;;12.75;100.00
32933;BME280;19444;50.518;10.870;2022-07-10T07:42:18;97156.56;;;12.82;100.00
32933;BME280;19444;50.518;10.870;2022-07-10T07:45:15;97158.38;;;12.95;100.00
32933;BME280;19444;50.518;10.870;2022-07-10T07:48:12;97152.09;;;12.77;100.00
32933;BME280;19444;50.518;10.870;2022-07-10T07:51:09;97158.28;;;13.00;100.00
32933;BME280;19444;50.518;10.870;2022-07-10T07:54:06;97149.34;;;12.91;100.00
32933;BME280;19444;50.518;10.870;2022-07-10T07:57:03;97154.00;;;12.99;100.00
32933;BME280;19444;50.518;10.870;2022-07-10T08:00:00;97161.50;;;12.89;100.00
32933;BME280;19444;50.518;10.870;2022-07-10T08:02:58;97170.28;;;12.58;100.00
32933;BME280;19444;50.518;10.870;2022-07-10T08:05:57;97167.41;;;12.55;100.00
32933;BME280;19444;50.518;10.870;2022-07-10T08:08:54;97158.84;;;12.52;100.00
32933;BME280;19444;50.518;10.870;2022-07-10T08:11:51;97160.59;;;12.35;100.00
32933;BME280;19444;50.518;10.870;2022-07-10T08:14:48;97160.66;;;12.43;100.00
32933;BME280;19444;50.518;10.870;2022-07-10T08:17:50;97164.25;;;12.39;100.00
32933;BME280;19444;50.518;10.870;2022-07-10T08:20:48;97175.72;;;12.31;100.00
32933;BME280;19444;50.518;10.870;2022-07-10T08:23:45;97178.97;;;12.55;100.00
32933;BME280;19444;50.518;10.870;2022-07-10T08:26:42;97172.19;;;12.58;100.00
32933;BME280;19444;50.518;10.870;2022-07-10T08:29:40;97162.47;;;12.70;100.00
32933;BME280;19444;50.518;10.870;2022-07-10T08:32:38;97160.88;;;12.47;100.00
32933;BME280;19444;50.518;10.870;2022-07-10T08:35:36;97167.28;;;12.60;100.00
32933;BME280;19444;50.518;10.870;2022-07-10T08:38:32;97177.31;;;12.45;100.00
32933;BME280;19444;50.518;10.870;2022-07-10T08:41:31;97176.13;;;12.38;100.00
32933;BME280;19444;50.518;10.870;2022-07-10T08:44:28;97186.47;;;12.44;100.00
32933;BME280;19444;50.518;10.870;2022-07-10T08:47:26;97196.16;;;12.68;100.00
32933;BME280;19444;50.518;10.870;2022-07-10T08:50:24;97198.38;;;12.52;100.00
32933;BME280;19444;50.518;10.870;2022-07-10T08:53:32;97190.44;;;12.47;100.00
32933;BME280;19444;50.518;10.870;2022-07-10T08:56:29;97199.69;;;12.77;100.00
32933;BME280;19444;50.518;10.870;2022-07-10T08:59:28;97194.16;;;12.73;100.00
32933;BME280;19444;50.518;10.870;2022-07-10T09:02:27;97184.44;;;12.50;100.00
32933;BME280;19444;50.518;10.870;2022-07-10T09:05:26;97189.75;;;13.00;100.00
32933;BME280;19444;50.518;10.870;2022-07-10T09:08:28;97183.25;;;12.78;100.00
32933;BME280;19444;50.518;10.870;2022-07-10T09:11:27;97170.28;;;13.48;100.00
32933;BME280;19444;50.518;10.870;2022-07-10T09:14:26;97165.25;;;13.55;100.00
32933;BME280;19444;50.518;10.870;2022-07-10T09:17:59;97173.31;;;13.24;100.00
32933;BME280;19444;50.518;10.870;2022-07-10T09:20:58;97166.88;;;12.89;100.00
32933;BME280;19444;50.518;10.870;2022-07-10T09:24:04;97164.94;;;12.80;100.00
32933;BME280;19444;50.518;10.870;2022-07-10T09:27:04;97166.00;;;12.79;100.00
32933;BME280;19444;50.518;10.870;2022-07-10T09:30:01;97166.72;;;13.07;100.00
32933;BME280;19444;50.518;10.870;2022-07-10T09:33:25;97159.78;;;13.77;100.00
32933;BME280;19444;50.518;10.870;2022-07-10T09:36:23;97159.81;;;13.46;100.00
32933;BME280;19444;50.518;10.870;2022-07-10T09:39:20;97166.84;;;13.56;100.00
32933;BME280;19444;50.518;10.870;2022-07-10T09:42:34;97163.50;;;13.90;100.00
32933;BME280;19444;50.518;10.870;2022-07-10T09:45:33;97157.63;;;13.97;100.00
32933;BME280;19444;50.518;10.870;2022-07-10T09:48:31;97153.03;;;13.97;100.00
32933;BME280;19444;50.518;10.870;2022-07-10T09:51:37;97150.50;;;13.92;100.00
32933;BME280;19444;50.518;10.870;2022-07-10T09:54:44;97160.25;;;13.79;100.00
32933;BME280;19444;50.518;10.870;2022-07-10T09:57:44;97158.91;;;13.90;100.00
32933;BME280;19444;50.518;10.870;2022-07-10T10:00:45;97148.44;;;13.98;100.00
32933;BME280;19444;50.518;10.870;2022-07-10T10:03:43;97148.41;;;14.63;100.00
32933;BME280;19444;50.518;10.870;2022-07-10T10:06:41;97157.72;;;14.31;100.00
32933;BME280;19444;50.518;10.870;2022-07-10T10:09:41;97163.72;;;14.19;100.00
32933;BME280;19444;50.518;10.870;2022-07-10T10:12:49;97169.97;;;13.89;100.00
32933;BME280;19444;50.518;10.870;2022-07-10T10:15:50;97162.63;;;14.20;100.00
32933;BME280;19444;50.518;10.870;2022-07-10T10:18:50;97156.25;;;14.25;100.00
32933;BME280;19444;50.518;10.870;2022-07-10T10:22:07;97161.72;;;14.68;100.00
32933;BME280;19444;50.518;10.870;2022-07-10T10:25:13;97160.63;;;14.69;100.00
32933;BME280;19444;50.518;10.870;2022-07-10T10:28:14;97153.97;;;14.58;100.00
32933;BME280;19444;50.518;10.870;2022-07-10T10:31:12;97155.06;;;14.57;100.00
32933;BME280;19444;50.518;10.870;2022-07-10T10:34:10;97154.34;;;14.17;100.00
32933;BME280;19444;50.518;10.870;2022-07-10T10:37:25;97135.06;;;14.84;100.00
32933;BME280;19444;50.518;10.870;2022-07-10T10:40:32;97150.47;;;14.92;100.00
32933;BME280;19444;50.518;10.870;2022-07-10T10:43:29;97149.13;;;14.12;100.00
32933;BME280;19444;50.518;10.870;2022-07-10T10:46:26;97154.34;;;14.26;100.00
32933;BME280;19444;50.518;10.870;2022-07-10T10:49:24;97153.56;;;14.16;100.00
32933;BME280;19444;50.518;10.870;2022-07-10T10:52:22;97143.50;;;14.65;100.00
32933;BME280;19444;50.518;10.870;2022-07-10T10:55:20;97144.25;;;14.40;100.00
32933;BME280;19444;50.518;10.870;2022-07-10T10:58:18;97156.25;;;14.16;100.00
32933;BME280;19444;50.518;10.870;2022-07-10T11:04:18;97140.28;;;14.37;100.00
32933;BME280;19444;50.518;10.870;2022-07-10T11:10:47;97147.13;;;13.78;100.00
32933;BME280;19444;50.518;10.870;2022-07-10T11:13:45;97154.28;;;13.82;100.00
32933;BME280;19444;50.518;10.870;2022-07-10T11:16:47;97158.44;;;14.06;100.00
32933;BME280;19444;50.518;10.870;2022-07-10T11:19:52;97149.38;;;13.93;100.00
32933;BME280;19444;50.518;10.870;2022-07-10T11:29:18;97152.47;;;14.43;100.00
32933;BME280;19444;50.518;10.870;2022-07-10T11:32:16;97139.03;;;14.69;100.00
32933;BME280;19444;50.518;10.870;2022-07-10T11:35:13;97139.50;;;14.80;100.00
32933;BME280;19444;50.518;10.870;2022-07-10T11:38:10;97141.38;;;14.97;100.00
32933;BME280;19444;50.518;10.870;2022-07-10T11:41:19;97126.06;;;15.27;100.00
32933;BME280;19444;50.518;10.870;2022-07-10T11:44:18;97126.63;;;15.58;100.00
32933;BME280;19444;50.518;10.870;2022-07-10T11:47:17;97129.41;;;15.79;100.00
32933;BME280;19444;50.518;10.870;2022-07-10T11:50:14;97129.22;;;15.46;100.00
32933;BME280;19444;50.518;10.870;2022-07-10T11:53:12;97132.16;;;15.15;100.00
32933;BME280;19444;50.518;10.870;2022-07-10T11:56:09;97142.03;;;14.94;100.00
32933;BME280;19444;50.518;10.870;2022-07-10T11:59:13;97133.63;;;14.69;100.00
32933;BME280;19444;50.518;10.870;2022-07-10T12:02:10;97128.69;;;14.97;100.00
32933;BME280;19444;50.518;10.870;2022-07-10T12:05:07;97131.19;;;15.75;100.00
32933;BME280;19444;50.518;10.870;2022-07-10T12:08:05;97134.38;;;15.22;100.00
32933;BME280;19444;50.518;10.870;2022-07-10T12:11:12;97118.47;;;16.05;100.00
32933;BME280;19444;50.518;10.870;2022-07-10T12:17:14;97120.47;;;15.87;100.00
32933;BME280;19444;50.518;10.870;2022-07-10T12:20:13;97129.03;;;15.51;100.00
32933;BME280;19444;50.518;10.870;2022-07-10T12:23:11;97137.22;;;15.72;100.00
32933;BME280;19444;50.518;10.870;2022-07-10T12:26:12;97138.41;;;15.45;100.00
32933;BME280;19444;50.518;10.870;2022-07-10T12:29:28;97131.69;;;15.60;100.00
32933;BME280;19444;50.518;10.870;2022-07-10T12:32:25;97135.03;;;16.45;100.00
32933;BME280;19444;50.518;10.870;2022-07-10T12:35:23;97124.94;;;16.55;96.21
32933;BME280;19444;50.518;10.870;2022-07-10T12:38:24;97121.47;;;16.75;98.51
32933;BME280;19444;50.518;10.870;2022-07-10T12:41:21;97117.66;;;18.15;93.45
32933;BME280;19444;50.518;10.870;2022-07-10T12:47:47;97109.13;;;17.44;87.98
32933;BME280;19444;50.518;10.870;2022-07-10T12:50:44;97112.63;;;17.20;95.32
32933;BME280;19444;50.518;10.870;2022-07-10T12:53:47;97118.81;;;16.66;90.47
32933;BME280;19444;50.518;10.870;2022-07-10T12:56:44;97118.56;;;16.80;99.66
32933;BME280;19444;50.518;10.870;2022-07-10T12:59:41;97118.28;;;16.94;96.39
32933;BME280;19444;50.518;10.870;2022-07-10T13:02:40;97110.78;;;17.12;100.00
32933;BME280;19444;50.518;10.870;2022-07-10T13:05:41;97103.81;;;18.85;86.81
32933;BME280;19444;50.518;10.870;2022-07-10T13:08:47;97102.38;;;16.92;89.63
32933;BME280;19444;50.518;10.870;2022-07-10T13:11:44;97099.13;;;17.56;92.67
32933;BME280;19444;50.518;10.870;2022-07-10T13:14:40;97113.13;;;18.07;79.98
32933;BME280;19444;50.518;10.870;2022-07-10T13:17:44;97097.38;;;18.78;69.53
32933;BME280;19444;50.518;10.870;2022-07-10T13:20:41;97099.16;;;19.93;76.51
32933;BME280;19444;50.518;10.870;2022-07-10T13:23:38;97091.09;;;19.49;70.71
32933;BME280;19444;50.518;10.870;2022-07-10T13:26:35;97098.06;;;19.62;63.49
32933;BME280;19444;50.518;10.870;2022-07-10T13:29:33;97087.38;;;18.94;66.08
32933;BME280;19444;50.518;10.870;2022-07-10T13:32:30;97089.50;;;18.08;82.31
32933;BME280;19444;50.518;10.870;2022-07-10T13:35:30;97091.06;;;18.33;75.20
32933;BME280;19444;50.518;10.870;2022-07-10T13:38:28;97078.34;;;17.48;77.42
32933;BME280;19444;50.518;10.870;2022-07-10T13:41:25;97099.13;;;17.69;83.85
32933;BME280;19444;50.518;10.870;2022-07-10T13:44:22;97099.94;;;17.81;87.62
32933;BME280;19444;50.518;10.870;2022-07-10T13:47:19;97112.13;;;17.87;77.77
32933;BME280;19444;50.518;10.870;2022-07-10T13:50:17;97086.06;;;19.19;70.13
32933;BME280;19444;50.518;10.870;2022-07-10T13:53:14;97086.34;;;18.58;65.94
32933;BME280;19444;50.518;10.870;2022-07-10T13:56:11;97075.19;;;19.03;83.41
32933;BME280;19444;50.518;10.870;2022-07-10T13:59:12;97073.09;;;19.13;83.55
32933;BME280;19444;50.518;10.870;2022-07-10T14:02:09;97082.44;;;19.59;63.35
32933;BME280;19444;50.518;10.870;2022-07-10T14:05:12;97074.25;;;20.26;68.65
32933;BME280;19444;50.518;10.870;2022-07-10T14:08:09;97062.81;;;18.90;71.38
32933;BME280;19444;50.518;10.870;2022-07-10T14:11:06;97065.75;;;18.69;77.58
32933;BME280;19444;50.518;10.870;2022-07-10T14:14:03;97085.44;;;17.53;81.09
32933;BME280;19444;50.518;10.870;2022-07-10T14:17:00;97075.47;;;18.30;81.86
32933;BME280;19444;50.518;10.870;2022-07-10T14:19:57;97080.81;;;17.53;88.55
32933;BME280;19444;50.518;10.870;2022-07-10T14:22:54;97087.25;;;18.22;85.63
32933;BME280;19444;50.518;10.870;2022-07-10T14:25:50;97079.13;;;17.61;76.28
32933;BME280;19444;50.518;10.870;2022-07-10T14:28:47;97083.53;;;17.90;78.16
32933;BME280;19444;50.518;10.870;2022-07-10T14:31:45;97079.97;;;17.16;79.17
32933;BME280;19444;50.518;10.870;2022-07-10T14:34:45;97096.19;;;17.49;86.18
32933;BME280;19444;50.518;10.870;2022-07-10T14:37:42;97087.91;;;17.46;82.70
32933;BME280;19444;50.518;10.870;2022-07-10T14:40:39;97090.19;;;17.56;83.44
32933;BME280;19444;50.518;10.870;2022-07-10T14:43:36;97092.75;;;17.28;95.12
32933;BME280;19444;50.518;10.870;2022-07-10T14:46:34;97093.03;;;17.47;84.48
32933;BME280;19444;50.518;10.870;2022-07-10T14:49:31;97077.84;;;18.19;71.33
32933;BME280;19444;50.518;10.870;2022-07-10T14:52:28;97075.84;;;18.44;75.32
32933;BME280;19444;50.518;10.870;2022-07-10T14:55:28;97084.66;;;17.40;79.58
32933;BME280;19444;50.518;10.870;2022-07-10T14:58:25;97069.97;;;17.29;87.19
32933;BME280;19444;50.518;10.870;2022-07-10T15:01:22;97090.19;;;17.68;88.11
32933;BME280;19444;50.518;10.870;2022-07-10T15:04:19;97092.19;;;17.34;86.06
32933;BME280;19444;50.518;10.870;2022-07-10T15:07:16;97091.56;;;16.92;88.49
32933;BME280;19444;50.518;10.870;2022-07-10T15:10:14;97093.19;;;17.18;90.70
32933;BME280;19444;50.518;10.870;2022-07-10T15:13:13;97089.38;;;17.55;86.91
32933;BME280;19444;50.518;10.870;2022-07-10T15:16:10;97085.75;;;16.61;89.56
32933;BME280;19444;50.518;10.870;2022-07-10T15:19:07;97092.94;;;16.77;94.51
32933;BME280;19444;50.518;10.870;2022-07-10T15:22:07;97075.25;;;16.59;91.23
32933;BME280;19444;50.518;10.870;2022-07-10T15:25:04;97088.19;;;16.54;98.25
32933;BME280;19444;50.518;10.870;2022-07-10T15:28:01;97093.00;;;16.90;94.22
32933;BME280;19444;50.518;10.870;2022-07-10T15:31:00;97094.78;;;16.86;93.64
32933;BME280;19444;50.518;10.870;2022-07-10T15:33:58;97090.78;;;17.04;90.30
32933;BME280;19444;50.518;10.870;2022-07-10T15:36:56;97083.97;;;16.86;94.96
32933;BME280;19444;50.518;10.870;2022-07-10T15:39:54;97084.50;;;16.58;92.13
32933;BME280;19444;50.518;10.870;2022-07-10T15:42:51;97079.03;;;16.67;100.00